Time;durP1;ratioP1;P1;durP2;ratioP2;P2;SDS_P1;SDS_P2;PMS_P1;PMS_P2;Temp;Humidity;BMP_temperature;BMP_pressure;BME280_temperature;BME280_humidity;BME280_pressure;Samples;Min_cycle;Max_cycle;Signal;HPM_P1;HPM_P2
2023/06/24 00:01:58;;;;;;;13.63;9.35;;;;;;;22.23;100.00;65328.84;5094231;28;20692;-57
2023/06/24 00:04:24;;;;;;;11.45;10.25;;;;;;;22.17;100.00;65319.63;5094000;28;20253;-59
2023/06/24 00:06:52;;;;;;;10.70;9.38;;;;;;;22.11;100.00;65313.00;5094028;28;20234;-59
2023/06/24 00:09:17;;;;;;;10.02;8.90;;;;;;;22.08;100.00;65315.34;5094217;28;20243;-55
2023/06/24 00:11:43;;;;;;;12.77;9.30;;;;;;;22.13;100.00;65315.19;5094099;28;20322;-55
2023/06/24 00:14:08;;;;;;;11.52;9.73;;;;;;;22.06;100.00;65308.00;5094196;28;20223;-54
2023/06/24 00:16:35;;;;;;;11.85;10.23;;;;;;;22.15;100.00;65319.97;5093720;28;20211;-55
2023/06/24 00:19:01;;;;;;;10.93;9.40;;;;;;;21.99;100.00;65299.72;5094066;28;20218;-54
2023/06/24 00:21:31;;;;;;;12.45;9.73;;;;;;;22.03;100.00;65307.25;5093723;28;20271;-58
2023/06/24 00:24:04;;;;;;;11.20;9.70;;;;;;;21.87;100.00;65289.00;5093570;28;20243;-59
2023/06/24 00:26:29;;;;;;;13.18;10.27;;;;;;;21.77;100.00;65278.47;5093669;28;20220;-55
2023/06/24 00:28:55;;;;;;;12.63;9.85;;;;;;;21.83;100.00;65287.69;5093465;28;20219;-55
2023/06/24 00:31:21;;;;;;;10.38;9.30;;;;;;;21.88;100.00;65290.66;5093718;28;20333;-57
2023/06/24 00:33:46;;;;;;;12.32;9.82;;;;;;;21.72;100.00;65267.78;5093863;28;20231;-58
2023/06/24 00:36:12;;;;;;;12.93;10.05;;;;;;;21.77;100.00;65277.91;5093680;28;20358;-59
2023/06/24 00:38:38;;;;;;;13.88;10.90;;;;;;;21.74;100.00;65275.69;5093767;28;20220;-54
2023/06/24 00:41:04;;;;;;;11.93;9.60;;;;;;;21.65;100.00;65265.72;5093531;28;20200;-55
2023/06/24 00:43:30;;;;;;;10.57;9.48;;;;;;;21.72;100.00;65273.50;5093414;28;20563;-54
2023/06/24 00:45:56;;;;;;;12.57;10.40;;;;;;;21.80;100.00;65281.78;5093421;28;20248;-55
2023/06/24 00:48:22;;;;;;;13.88;10.73;;;;;;;21.89;100.00;65291.78;5093472;28;20220;-54
2023/06/24 00:50:49;;;;;;;11.73;9.77;;;;;;;21.88;100.00;65290.09;5092486;28;20204;-55
2023/06/24 00:53:16;;;;;;;11.15;9.93;;;;;;;21.84;100.00;65286.22;5093029;28;20227;-60
2023/06/24 00:55:42;;;;;;;12.65;9.70;;;;;;;21.85;100.00;65284.78;5093047;28;20210;-58
2023/06/24 00:58:09;;;;;;;12.00;9.95;;;;;;;21.83;100.00;65284.56;5093061;28;20204;-63
2023/06/24 01:00:35;;;;;;;13.27;9.50;;;;;;;21.71;100.00;65271.84;5093159;28;20282;-60
2023/06/24 01:03:00;;;;;;;12.20;10.38;;;;;;;21.66;100.00;65263.72;5092973;28;20291;-58
2023/06/24 01:05:27;;;;;;;11.20;10.05;;;;;;;21.59;100.00;65259.09;5093041;28;20307;-57
2023/06/24 01:07:55;;;;;;;15.52;10.77;;;;;;;21.64;100.00;65266.66;5093033;28;20669;-58
2023/06/24 01:10:23;;;;;;;12.88;9.77;;;;;;;21.56;100.00;65255.22;5093077;28;20211;-55
2023/06/24 01:12:49;;;;;;;10.18;9.07;;;;;;;21.47;100.00;65248.38;5092728;28;20211;-58
2023/06/24 01:15:15;;;;;;;12.00;10.48;;;;;;;21.35;100.00;65232.00;5092103;28;20579;-57
2023/06/24 01:18:11;;;;;;;11.73;10.52;;;;;;;21.34;100.00;65234.03;5092850;28;20341;-55
2023/06/24 01:20:46;;;;;;;13.85;9.90;;;;;;;21.32;100.00;65229.25;5092881;28;20208;-54
2023/06/24 01:23:14;;;;;;;12.40;9.90;;;;;;;21.38;100.00;65235.88;5091279;28;20637;-55
2023/06/24 01:26:07;;;;;;;13.32;10.15;;;;;;;21.23;100.00;65223.88;5092671;28;20208;-58
2023/06/24 01:28:51;;;;;;;14.15;10.73;;;;;;;21.14;100.00;65208.78;5092689;28;20223;-55
2023/06/24 01:31:38;;;;;;;12.68;10.90;;;;;;;21.08;100.00;65202.69;5092868;28;20192;-55
2023/06/24 01:34:36;;;;;;;12.32;9.88;;;;;;;21.14;100.00;65208.78;5092733;28;20307;-54
2023/06/24 01:37:14;;;;;;;12.57;9.25;;;;;;;21.22;100.00;65217.63;5077194;28;20215;-55
2023/06/24 01:39:57;;;;;;;15.38;10.30;;;;;;;21.26;100.00;65222.59;5093127;28;20204;-54
2023/06/24 01:42:23;;;;;;;13.55;10.20;;;;;;;21.17;100.00;65212.66;5092576;28;20669;-54
2023/06/24 01:44:50;;;;;;;14.75;10.32;;;;;;;21.13;100.00;65207.69;5074466;28;20220;-53
2023/06/24 01:47:21;;;;;;;13.98;10.10;;;;;;;21.18;100.00;65213.75;5092490;28;20235;-59
2023/06/24 01:49:48;;;;;;;15.55;11.05;;;;;;;21.12;100.00;65207.13;5092561;28;20208;-57
2023/06/24 01:52:14;;;;;;;12.75;10.15;;;;;;;21.08;100.00;65202.69;5092474;28;20208;-57
2023/06/24 01:54:41;;;;;;;11.23;9.75;;;;;;;21.15;100.00;65210.44;5092361;28;20713;-55
2023/06/24 01:57:09;;;;;;;10.95;9.40;;;;;;;21.19;100.00;65214.31;5092157;28;20204;-54
2023/06/24 01:59:40;;;;;;;11.80;10.32;;;;;;;21.25;100.00;65223.50;5092104;28;20697;-55
2023/06/24 02:02:07;;;;;;;12.48;9.75;;;;;;;21.32;100.00;65228.69;5092591;28;20181;-54
2023/06/24 02:04:35;;;;;;;11.02;10.00;;;;;;;21.24;100.00;65217.28;5092314;28;20220;-58
2023/06/24 02:07:03;;;;;;;10.77;9.70;;;;;;;21.30;100.00;65229.59;5092043;28;20176;-54
2023/06/24 02:09:30;;;;;;;11.32;10.13;;;;;;;21.38;100.00;65237.88;5091939;28;20600;-56
2023/06/24 02:12:02;;;;;;;11.40;9.18;;;;;;;21.28;100.00;65227.38;5092176;28;20211;-55
2023/06/24 02:14:30;;;;;;;13.73;10.25;;;;;;;21.21;100.00;65219.09;5092256;28;20215;-58
2023/06/24 02:16:59;;;;;;;14.25;10.10;;;;;;;21.28;100.00;65227.38;5092123;28;20595;-59
2023/06/24 02:19:28;;;;;;;11.00;9.32;;;;;;;21.34;100.00;65228.88;5091787;28;20227;-55
2023/06/24 02:21:57;;;;;;;12.85;9.88;;;;;;;21.32;100.00;65229.25;5091970;28;20230;-55
2023/06/24 02:24:23;;;;;;;10.57;9.40;;;;;;;21.19;100.00;65217.41;5091967;28;20212;-54
2023/06/24 02:26:50;;;;;;;12.20;9.65;;;;;;;21.10;100.00;65201.78;5091727;28;20583;-58
2023/06/24 02:29:17;;;;;;;12.85;10.90;;;;;;;21.14;100.00;65208.78;5092047;28;20222;-56
2023/06/24 02:31:42;;;;;;;13.10;9.88;;;;;;;21.14;100.00;65206.78;5091787;28;20280;-54
2023/06/24 02:34:08;;;;;;;10.30;9.23;;;;;;;21.00;100.00;65193.28;5092032;28;20333;-55
2023/06/24 02:36:33;;;;;;;12.15;10.77;;;;;;;20.87;100.00;65180.00;5091880;28;20204;-56
2023/06/24 02:38:59;;;;;;;18.17;10.60;;;;;;;20.75;100.00;65164.19;5091911;28;20292;-58
2023/06/24 02:41:24;;;;;;;13.77;10.75;;;;;;;20.73;100.00;65161.41;5091579;28;20200;-58
2023/06/24 02:43:49;;;;;;;13.20;10.73;;;;;;;20.91;100.00;65181.31;5091275;28;20235;-58
2023/06/24 02:46:16;;;;;;;14.00;10.98;;;;;;;21.00;100.00;65190.72;5091475;28;20216;-57
2023/06/24 02:48:44;;;;;;;14.57;11.25;;;;;;;20.96;100.00;65189.41;5091688;28;20221;-55
2023/06/24 02:51:10;;;;;;;14.00;11.18;;;;;;;20.91;100.00;65184.44;5091431;28;20207;-54
2023/06/24 02:53:39;;;;;;;14.60;11.93;;;;;;;20.81;100.00;65175.94;5091303;28;20216;-57
2023/06/24 02:56:06;;;;;;;12.30;10.80;;;;;;;20.95;100.00;65188.31;5091051;28;20273;-58
2023/06/24 02:58:32;;;;;;;13.90;12.10;;;;;;;20.95;100.00;65190.84;5091274;28;20625;-58
2023/06/24 03:01:03;;;;;;;14.95;12.48;;;;;;;20.82;100.00;65173.94;5091193;28;20313;-54
2023/06/24 03:03:29;;;;;;;14.75;10.90;;;;;;;20.88;100.00;65181.13;5091387;28;20211;-54
2023/06/24 03:05:58;;;;;;;18.02;11.85;;;;;;;20.93;100.00;65186.09;5091104;28;20216;-55
2023/06/24 03:08:25;;;;;;;15.63;12.20;;;;;;;20.72;100.00;65166.00;5091184;28;20212;-57
2023/06/24 03:10:57;;;;;;;16.70;13.02;;;;;;;20.85;100.00;65177.81;5091242;28;20641;-55
2023/06/24 03:13:23;;;;;;;14.50;12.48;;;;;;;20.85;100.00;65177.81;5091162;28;20243;-58
2023/06/24 03:15:48;;;;;;;14.70;12.82;;;;;;;20.71;100.00;65161.75;5090728;28;20228;-59
2023/06/24 03:18:14;;;;;;;17.17;12.75;;;;;;;20.61;100.00;65153.28;5091094;28;20757;-58
2023/06/24 03:20:39;;;;;;;16.92;12.35;;;;;;;20.61;100.00;65151.28;5091163;28;20736;-60
2023/06/24 03:23:06;;;;;;;17.40;12.88;;;;;;;20.56;100.00;65145.19;5090989;28;20734;-54
2023/06/24 03:25:32;;;;;;;16.67;12.35;;;;;;;20.84;100.00;65173.59;5090978;28;20705;-58
2023/06/24 03:27:57;;;;;;;17.52;12.68;;;;;;;20.91;100.00;65183.88;5090690;28;20204;-54
2023/06/24 03:30:22;;;;;;;16.00;13.20;;;;;;;20.95;100.00;65185.19;5091132;28;20287;-54
2023/06/24 03:32:48;;;;;;;15.88;12.88;;;;;;;20.98;100.00;65191.06;5091068;28;20203;-55
2023/06/24 03:35:14;;;;;;;13.18;11.70;;;;;;;20.91;100.00;65183.88;5090763;28;20253;-61
2023/06/24 03:37:39;;;;;;;14.82;12.13;;;;;;;20.79;100.00;65168.59;5090739;28;20203;-58
2023/06/24 03:40:05;;;;;;;16.65;12.43;;;;;;;20.80;100.00;65172.28;5091049;28;20212;-59
2023/06/24 03:42:31;;;;;;;13.95;12.30;;;;;;;21.06;100.00;65203.06;5090766;28;20202;-60
2023/06/24 03:44:56;;;;;;;16.98;12.55;;;;;;;21.01;100.00;65194.94;5090672;28;20212;-54
2023/06/24 03:47:22;;;;;;;15.98;13.20;;;;;;;21.01;100.00;65194.94;5072398;28;20369;-58
2023/06/24 03:49:47;;;;;;;15.65;13.55;;;;;;;21.06;100.00;65203.06;5090534;28;20208;-60
2023/06/24 03:52:12;;;;;;;13.80;12.13;;;;;;;21.22;100.00;65218.19;5090486;28;20207;-58
2023/06/24 03:54:40;;;;;;;18.27;14.27;;;;;;;21.21;100.00;65219.63;5091101;28;20349;-58
2023/06/24 03:57:06;;;;;;;16.05;12.98;;;;;;;21.15;100.00;65207.34;5090570;28;20208;-55
2023/06/24 03:59:32;;;;;;;12.98;11.50;;;;;;;21.13;100.00;65208.22;5090863;28;20212;-55
2023/06/24 04:01:57;;;;;;;16.10;13.60;;;;;;;21.24;100.00;65222.97;5090707;28;20195;-58
2023/06/24 04:04:23;;;;;;;17.67;13.75;;;;;;;21.28;100.00;65224.81;5090542;28;20265;-57
2023/06/24 04:06:48;;;;;;;18.73;14.52;;;;;;;21.30;100.00;65226.47;5090377;28;20224;-57
2023/06/24 04:09:14;;;;;;;17.63;13.38;;;;;;;21.34;100.00;65231.44;5090469;28;20223;-57
2023/06/24 04:11:39;;;;;;;15.90;13.68;;;;;;;21.16;100.00;65211.53;5090321;28;20203;-58
2023/06/24 04:14:06;;;;;;;16.90;12.68;;;;;;;21.20;100.00;65212.84;5090287;28;20214;-58
2023/06/24 04:16:32;;;;;;;17.67;13.38;;;;;;;21.08;100.00;65202.69;5090344;28;20211;-58
2023/06/24 04:18:57;;;;;;;16.25;12.88;;;;;;;21.30;100.00;65229.03;5090196;28;20639;-58
2023/06/24 04:21:23;;;;;;;18.17;13.32;;;;;;;21.28;100.00;65224.81;5090359;28;20223;-53
2023/06/24 04:23:48;;;;;;;19.65;13.25;;;;;;;21.40;100.00;65240.09;5090483;28;20306;-59
2023/06/24 04:26:14;;;;;;;20.63;13.77;;;;;;;21.37;100.00;65234.22;5090984;28;20224;-59
2023/06/24 04:28:40;;;;;;;13.57;12.18;;;;;;;21.40;100.00;65237.53;5093679;28;20658;-58
2023/06/24 04:31:05;;;;;;;14.63;9.88;;;;;;;21.44;100.00;65245.06;5093837;28;20196;-58
2023/06/24 04:33:31;;;;;;;16.75;10.90;;;;;;;21.47;100.00;65247.84;5093374;28;20227;-58
2023/06/24 04:35:57;;;;;;;15.18;10.77;;;;;;;21.44;100.00;65242.50;5093521;28;20245;-58
2023/06/24 04:38:22;;;;;;;14.18;9.60;;;;;;;21.51;100.00;65247.69;5093698;28;20272;-58
2023/06/24 04:40:48;;;;;;;11.55;10.35;;;;;;;21.62;100.00;65262.44;5093648;28;20389;-58
2023/06/24 04:43:14;;;;;;;13.10;10.95;;;;;;;21.74;100.00;65275.69;5075265;28;20211;-58
2023/06/24 04:45:40;;;;;;;14.52;10.95;;;;;;;21.71;100.00;65269.25;5093405;28;20421;-56
2023/06/24 04:48:05;;;;;;;15.88;10.88;;;;;;;22.00;100.00;65306.50;5093281;28;20204;-56
2023/06/24 04:50:31;;;;;;;18.67;11.18;;;;;;;22.13;100.00;65317.78;5093383;28;20207;-58
2023/06/24 04:52:57;;;;;;;16.30;10.43;;;;;;;22.05;100.00;65308.91;5093231;28;20291;-54
2023/06/24 04:55:23;;;;;;;15.40;9.93;;;;;;;22.10;100.00;65311.88;5093258;28;20279;-59
2023/06/24 04:57:48;;;;;;;12.65;9.98;;;;;;;22.09;100.00;65308.22;5093118;28;20227;-58
2023/06/24 05:00:14;;;;;;;12.00;10.35;;;;;;;22.03;100.00;65307.25;5092936;28;20215;-57
2023/06/24 05:02:40;;;;;;;12.57;10.25;;;;;;;22.15;100.00;65317.97;5093380;28;20211;-57
2023/06/24 05:05:05;;;;;;;15.05;11.10;;;;;;;22.12;100.00;65319.78;5093244;28;20595;-57
2023/06/24 05:07:31;;;;;;;12.63;11.30;;;;;;;22.11;100.00;65315.56;5092960;28;20211;-58
2023/06/24 05:09:56;;;;;;;12.02;10.00;;;;;;;22.07;100.00;65311.13;5093037;28;20574;-58
2023/06/24 05:12:22;;;;;;;13.07;10.38;;;;;;;22.10;100.00;65312.44;5093028;28;20204;-55
2023/06/24 05:14:54;;;;;;;13.32;10.32;;;;;;;22.11;100.00;65313.53;5093240;28;20565;-59
2023/06/24 05:17:20;;;;;;;13.40;10.38;;;;;;;22.03;100.00;65306.69;5093058;28;20250;-58
2023/06/24 05:19:45;;;;;;;11.13;9.35;;;;;;;22.07;100.00;65311.69;5074771;28;20276;-54
2023/06/24 05:22:11;;;;;;;14.02;10.55;;;;;;;22.22;100.00;65325.72;5092907;28;20712;-59
2023/06/24 05:24:37;;;;;;;12.90;10.50;;;;;;;22.29;100.00;65336.03;5093268;28;20369;-56
2023/06/24 05:27:06;;;;;;;13.95;10.80;;;;;;;22.24;100.00;65330.50;5074911;28;20197;-58
2023/06/24 05:29:33;;;;;;;14.82;10.73;;;;;;;22.32;100.00;65339.34;5092700;28;20634;-58
2023/06/24 05:31:58;;;;;;;14.27;12.80;;;;;;;22.21;100.00;65324.06;5092329;28;20203;-60
2023/06/24 05:34:24;;;;;;;23.05;13.45;;;;;;;22.36;100.00;65341.22;5092604;28;20220;-60
2023/06/24 05:36:49;;;;;;;22.58;13.25;;;;;;;22.27;100.00;65333.81;5091056;28;20203;-59
2023/06/24 05:39:15;;;;;;;19.15;13.80;;;;;;;22.39;100.00;65343.97;5090215;28;20231;-59
2023/06/24 05:41:40;;;;;;;18.73;15.48;;;;;;;22.68;100.00;65381.25;5091499;28;20196;-58
2023/06/24 05:44:12;;;;;;;25.35;16.08;;;;;;;22.82;100.00;65391.63;5091411;28;20608;-55
2023/06/24 05:46:37;;;;;;;30.35;18.45;;;;;;;22.88;100.00;65400.84;5092407;28;20220;-55
2023/06/24 05:49:03;;;;;;;25.52;17.52;;;;;;;22.88;100.00;65397.69;5092927;28;20273;-55
2023/06/24 05:51:28;;;;;;;22.52;16.65;;;;;;;22.91;100.00;65404.16;5092463;28;20665;-54
2023/06/24 05:53:54;;;;;;;26.95;18.17;;;;;;;22.90;100.00;65403.06;5092672;28;20680;-56
2023/06/24 05:56:21;;;;;;;28.23;18.00;;;;;;;23.04;100.00;65415.97;5092252;28;20230;-55
2023/06/24 05:58:47;;;;;;;22.83;17.08;;;;;;;23.07;100.00;65419.28;5092407;28;20227;-55
2023/06/24 06:01:12;;;;;;;25.67;18.48;;;;;;;23.20;100.00;65435.72;5092029;28;20196;-55
2023/06/24 06:03:37;;;;;;;25.60;18.27;;;;;;;23.17;100.00;65432.38;5092109;28;20212;-54
2023/06/24 06:06:04;;;;;;;21.98;17.92;;;;;;;23.21;100.00;65436.84;5091789;28;20219;-54
2023/06/24 06:08:29;;;;;;;27.15;18.45;;;;;;;23.25;100.00;65439.22;5057513;28;20247;-57
2023/06/24 06:10:55;;;;;;;27.40;18.65;;;;;;;23.11;100.00;65426.31;5087611;28;20250;-55
2023/06/24 06:13:20;;;;;;;22.58;18.25;;;;;;;23.18;100.00;65433.50;5089536;28;20741;-55
2023/06/24 06:15:45;;;;;;;23.10;14.32;;;;;;;23.38;100.00;65452.56;5082664;28;20785;-58
2023/06/24 06:18:12;;;;;;;18.65;14.52;;;;;;;23.41;100.00;65458.47;5088363;28;20646;-58
2023/06/24 06:20:37;;;;;;;22.90;16.10;;;;;;;23.37;100.00;65452.00;5084965;28;20224;-55
2023/06/24 06:23:02;;;;;;;17.35;13.38;;;;;;;23.34;99.23;65449.25;5079420;28;20248;-55
2023/06/24 06:25:28;;;;;;;23.98;16.33;;;;;;;23.38;100.00;65452.56;5087017;28;20224;-55
2023/06/24 06:27:53;;;;;;;17.45;13.00;;;;;;;23.46;98.50;65461.41;5091185;28;20192;-55
2023/06/24 06:30:19;;;;;;;22.38;16.98;;;;;;;23.51;98.78;65469.53;5091992;28;20733;-59
2023/06/24 06:32:44;;;;;;;18.58;14.02;;;;;;;23.64;100.00;65481.91;5091525;28;20212;-53
2023/06/24 06:35:10;;;;;;;16.63;13.93;;;;;;;23.79;98.12;65498.00;5091765;28;20233;-57
2023/06/24 06:37:35;;;;;;;18.08;14.07;;;;;;;23.92;100.00;65512.94;5091682;28;20203;-58
2023/06/24 06:40:01;;;;;;;16.55;12.98;;;;;;;24.21;99.01;65544.00;5077163;28;20240;-54
2023/06/24 06:42:26;;;;;;;16.67;14.05;;;;;;;24.20;95.46;65542.91;5073135;28;20252;-55
2023/06/24 06:44:52;;;;;;;19.58;13.00;;;;;;;24.36;97.47;65561.19;5081638;28;20278;-59
2023/06/24 06:47:17;;;;;;;17.42;12.95;;;;;;;24.59;95.49;65586.72;5080733;28;20205;-59
2023/06/24 06:49:49;;;;;;;14.10;11.52;;;;;;;24.73;94.66;65602.25;5082653;28;20269;-58
2023/06/24 06:52:15;;;;;;;15.48;12.15;;;;;;;24.95;93.35;65626.09;5080856;28;20701;-59
2023/06/24 06:54:40;;;;;;;15.07;12.60;;;;;;;25.04;90.20;65635.53;5081178;28;20207;-59
2023/06/24 06:57:06;;;;;;;15.82;12.38;;;;;;;24.99;89.96;65631.09;5079653;28;20677;-58
2023/06/24 06:59:32;;;;;;;13.63;12.23;;;;;;;24.86;89.63;65616.13;5084184;28;20760;-60
2023/06/24 07:01:58;;;;;;;14.30;12.38;;;;;;;24.53;91.52;65577.47;5089835;28;20216;-59
2023/06/24 07:04:23;;;;;;;15.60;12.45;;;;;;;24.49;92.52;65572.50;5084567;28;20238;-58
2023/06/24 07:06:48;;;;;;;14.82;13.25;;;;;;;24.67;92.53;65595.03;5091159;28;20300;-58
2023/06/24 07:09:14;;;;;;;19.00;12.52;;;;;;;24.83;93.19;65613.34;5091088;28;20243;-58
2023/06/24 07:11:41;;;;;;;17.95;12.50;;;;;;;25.03;92.30;65635.00;5090890;28;20204;-58
2023/06/24 07:14:06;;;;;;;14.45;11.95;;;;;;;25.15;93.36;65645.19;5089999;28;20765;-58
2023/06/24 07:16:32;;;;;;;13.32;11.93;;;;;;;25.29;91.68;65663.31;5091136;28;20279;-58
2023/06/24 07:18:57;;;;;;;17.98;13.35;;;;;;;25.43;92.57;65681.44;5090591;28;20208;-58
2023/06/24 07:21:23;;;;;;;18.80;13.50;;;;;;;25.60;90.13;65698.28;5088954;28;20204;-57
2023/06/24 07:23:48;;;;;;;13.98;11.52;;;;;;;25.59;89.85;65696.63;5091003;28;20219;-59
2023/06/24 07:26:14;;;;;;;15.68;12.68;;;;;;;25.58;88.15;65693.47;5090844;28;20372;-56
2023/06/24 07:28:39;;;;;;;16.13;11.02;;;;;;;25.54;90.57;65688.47;5090864;28;20290;-54
2023/06/24 07:31:05;;;;;;;14.35;11.98;;;;;;;25.50;89.07;65686.63;5090800;28;20176;-54
2023/06/24 07:33:37;;;;;;;21.65;15.00;;;;;;;25.60;94.53;65698.28;5090887;28;20222;-56
2023/06/24 07:36:03;;;;;;;13.98;12.48;;;;;;;25.75;86.20;65717.53;5090624;28;20285;-55
2023/06/24 07:38:29;;;;;;;15.75;11.80;;;;;;;25.70;84.30;65708.81;5090566;28;20701;-56
2023/06/24 07:40:55;;;;;;;16.65;12.63;;;;;;;25.66;88.63;65702.34;5090391;28;20208;-55
2023/06/24 07:43:21;;;;;;;14.95;11.40;;;;;;;25.82;86.99;65722.16;5090693;28;20248;-56
2023/06/24 07:45:46;;;;;;;14.90;11.40;;;;;;;25.97;87.46;65738.81;5090159;28;20341;-56
2023/06/24 07:48:12;;;;;;;16.08;12.25;;;;;;;26.22;86.21;65766.03;5089889;28;20279;-57
2023/06/24 07:50:38;;;;;;;14.80;12.65;;;;;;;26.30;87.85;65772.34;5088304;28;20288;-58
2023/06/24 07:53:04;;;;;;;15.30;11.90;;;;;;;26.39;88.59;65785.47;5090334;28;20257;-56
2023/06/24 07:55:29;;;;;;;19.65;12.60;;;;;;;26.28;86.10;65773.25;5090392;28;20204;-55
2023/06/24 07:57:55;;;;;;;17.25;12.55;;;;;;;26.50;84.46;65791.97;5090021;28;20620;-55
2023/06/24 08:00:20;;;;;;;18.33;12.15;;;;;;;26.42;86.43;65783.63;5090479;28;20181;-55
2023/06/24 08:02:45;;;;;;;14.43;12.35;;;;;;;26.55;85.08;65800.09;5093923;28;20207;-55
2023/06/24 08:05:11;;;;;;;13.75;11.45;;;;;;;26.84;82.63;65834.38;5091685;28;20224;-57
2023/06/24 08:07:37;;;;;;;12.40;11.10;;;;;;;27.02;83.01;65851.81;5093544;28;20800;-56
2023/06/24 08:10:03;;;;;;;12.93;11.63;;;;;;;26.96;79.17;65847.72;5092843;28;20238;-55
2023/06/24 08:12:29;;;;;;;12.50;11.20;;;;;;;27.01;80.28;65851.25;5093760;28;20338;-56
2023/06/24 08:14:54;;;;;;;14.20;12.15;;;;;;;27.16;75.38;65870.53;5092544;28;20723;-59
2023/06/24 08:17:20;;;;;;;13.50;11.73;;;;;;;27.11;78.77;65864.41;5093838;28;20591;-58
2023/06/24 08:19:45;;;;;;;14.52;11.93;;;;;;;27.05;78.13;65855.16;5093766;28;20235;-55
2023/06/24 08:22:10;;;;;;;17.70;11.90;;;;;;;27.40;80.26;65896.66;5093643;28;20192;-54
2023/06/24 08:24:36;;;;;;;15.65;11.40;;;;;;;27.38;78.92;65894.44;5093959;28;20287;-55
2023/06/24 08:27:02;;;;;;;18.02;13.43;;;;;;;27.59;78.52;65915.22;5092200;28;20257;-55
2023/06/24 08:29:28;;;;;;;15.23;11.55;;;;;;;27.90;77.51;65951.69;5093786;28;20204;-59
2023/06/24 08:31:53;;;;;;;12.55;11.25;;;;;;;27.85;75.39;65943.56;5092675;28;20184;-58
2023/06/24 08:34:18;;;;;;;12.82;11.50;;;;;;;27.91;73.10;65953.38;5093544;28;20231;-58
2023/06/24 08:36:44;;;;;;;13.25;11.65;;;;;;;27.90;73.68;65947.09;5093608;28;20192;-62
2023/06/24 08:39:09;;;;;;;14.82;10.98;;;;;;;27.99;73.55;65962.31;5093450;28;20323;-57
2023/06/24 08:41:35;;;;;;;16.30;10.02;;;;;;;27.89;71.27;65948.56;5092190;28;20196;-59
2023/06/24 08:44:00;;;;;;;16.25;11.55;;;;;;;27.40;71.55;65899.25;5093469;28;20595;-57
2023/06/24 08:46:27;;;;;;;11.95;10.30;;;;;;;27.60;70.58;65915.75;5093079;28;20320;-58
2023/06/24 08:49:10;;;;;;;12.20;10.88;;;;;;;27.70;76.68;65927.44;5093110;28;20208;-55
2023/06/24 08:51:41;;;;;;;15.50;11.20;;;;;;;27.86;74.11;65947.25;5093178;28;20195;-55
2023/06/24 08:54:09;;;;;;;14.55;11.88;;;;;;;28.11;74.15;65973.06;5093547;28;20250;-55
2023/06/24 08:56:38;;;;;;;18.48;11.48;;;;;;;28.32;75.14;65997.91;5093425;28;20188;-59
2023/06/24 08:59:05;;;;;;;12.90;11.48;;;;;;;28.22;73.77;65985.28;5093394;28;20705;-55
2023/06/24 09:01:31;;;;;;;13.93;11.27;;;;;;;28.32;71.06;65998.44;5093186;28;20212;-56
2023/06/24 09:03:56;;;;;;;15.25;11.32;;;;;;;28.72;69.33;66039.84;5093453;28;20268;-58
2023/06/24 09:06:22;;;;;;;14.73;11.05;;;;;;;28.96;69.86;66069.72;5091748;28;20305;-58
2023/06/24 09:08:54;;;;;;;13.18;11.30;;;;;;;29.25;70.05;66098.88;5093468;28;20208;-55
2023/06/24 09:11:24;;;;;;;13.43;11.35;;;;;;;29.44;68.68;66119.47;5092742;28;20271;-55
2023/06/24 09:14:00;;;;;;;12.55;10.77;;;;;;;29.47;67.76;66123.38;5093062;28;20290;-61
2023/06/24 09:16:26;;;;;;;11.88;10.65;;;;;;;29.65;69.46;66143.44;5091652;28;20188;-59
2023/06/24 09:18:53;;;;;;;12.93;11.25;;;;;;;29.59;64.54;66136.72;5092972;28;20786;-54
2023/06/24 09:21:30;;;;;;;12.15;10.75;;;;;;;29.52;63.46;66131.53;5092747;28;20196;-55
2023/06/24 09:23:57;;;;;;;13.18;10.23;;;;;;;29.58;63.22;66137.66;5092966;28;20207;-61
2023/06/24 09:26:26;;;;;;;12.02;10.85;;;;;;;29.84;66.90;66162.00;5091601;28;20711;-55
2023/06/24 09:28:54;;;;;;;14.73;10.82;;;;;;;30.02;65.05;66183.56;5092710;28;20216;-57
2023/06/24 09:31:19;;;;;;;13.75;10.43;;;;;;;30.09;63.01;66191.91;5092799;28;20269;-59
2023/06/24 09:33:46;;;;;;;11.43;10.32;;;;;;;30.12;63.27;66195.25;5092807;28;20219;-54
2023/06/24 09:36:13;;;;;;;14.00;10.43;;;;;;;30.05;58.14;66187.47;5092435;28;20250;-54
2023/06/24 09:38:41;;;;;;;13.80;10.80;;;;;;;29.74;59.44;66153.47;5092577;28;20219;-55
2023/06/24 09:41:08;;;;;;;12.27;10.45;;;;;;;29.97;61.04;66177.97;5092458;28;20192;-56
2023/06/24 09:43:39;;;;;;;11.10;10.00;;;;;;;30.08;61.92;66192.84;5092764;28;20262;-59
2023/06/24 09:46:05;;;;;;;13.88;9.55;;;;;;;30.21;60.59;66204.72;5092331;28;20620;-60
2023/06/24 09:48:30;;;;;;;14.27;11.30;;;;;;;29.57;58.86;66134.50;5092730;28;20735;-55
2023/06/24 09:51:04;;;;;;;11.50;10.30;;;;;;;30.11;59.81;66199.34;5092608;28;20599;-55
2023/06/24 09:53:31;;;;;;;12.95;11.45;;;;;;;30.38;60.19;66221.66;5090985;28;20249;-58
2023/06/24 09:55:59;;;;;;;14.45;11.45;;;;;;;30.78;62.44;66270.91;5092234;28;20192;-54
2023/06/24 09:58:25;;;;;;;13.63;11.68;;;;;;;30.95;60.47;66287.25;5092211;28;20212;-58
2023/06/24 10:00:52;;;;;;;13.55;10.80;;;;;;;30.39;58.18;66222.22;5092377;28;20196;-60
2023/06/24 10:03:18;;;;;;;12.85;10.98;;;;;;;30.17;58.66;66197.66;5092462;28;20212;-58
2023/06/24 10:05:44;;;;;;;11.95;10.75;;;;;;;30.91;58.67;66282.81;5092053;28;20216;-58
2023/06/24 10:08:13;;;;;;;12.80;11.50;;;;;;;31.42;61.19;66339.72;5092263;28;20261;-58
2023/06/24 10:10:39;;;;;;;13.48;9.82;;;;;;;31.76;55.33;66374.47;5092257;28;20382;-56
2023/06/24 10:13:04;;;;;;;11.60;10.40;;;;;;;31.27;53.41;66322.41;5091891;28;20284;-58
2023/06/24 10:15:30;;;;;;;10.77;9.68;;;;;;;31.69;55.23;66369.28;5092215;28;20274;-60
2023/06/24 10:17:55;;;;;;;10.40;9.43;;;;;;;31.61;53.83;66359.78;5092017;28;20405;-55
2023/06/24 10:20:27;;;;;;;13.80;10.05;;;;;;;32.01;55.76;66404.44;5091952;28;20196;-55
2023/06/24 10:22:53;;;;;;;12.00;10.43;;;;;;;32.33;54.09;66437.56;5091847;28;20314;-58
2023/06/24 10:25:19;;;;;;;15.30;10.88;;;;;;;32.61;53.29;66468.84;5089344;28;20378;-58
2023/06/24 10:27:44;;;;;;;12.45;9.35;;;;;;;32.69;55.69;66477.22;5091826;28;20245;-54
2023/06/24 10:30:23;;;;;;;12.02;9.75;;;;;;;32.22;51.90;66427.91;5091947;28;20206;-62
2023/06/24 10:32:54;;;;;;;10.30;8.95;;;;;;;32.46;54.02;66452.09;5091739;28;20670;-56
2023/06/24 10:35:34;;;;;;;11.18;9.77;;;;;;;32.17;53.62;66422.31;5091850;28;20597;-56
2023/06/24 10:38:01;;;;;;;11.63;9.90;;;;;;;32.61;51.28;66468.28;5090214;28;20195;-59
2023/06/24 10:40:42;;;;;;;13.45;9.25;;;;;;;32.77;48.23;66488.75;5091637;28;20192;-61
2023/06/24 10:43:27;;;;;;;11.00;9.80;;;;;;;33.11;51.72;66526.75;5091597;28;20542;-58
2023/06/24 10:45:54;;;;;;;10.50;9.30;;;;;;;33.39;50.43;66557.50;5091452;28;20242;-59
2023/06/24 10:48:20;;;;;;;10.35;9.30;;;;;;;33.52;49.80;66567.34;5091356;28;20239;-58
2023/06/24 10:50:46;;;;;;;10.30;9.27;;;;;;;33.45;48.32;66564.75;5091474;28;20329;-61
2023/06/24 10:53:12;;;;;;;12.88;9.10;;;;;;;33.64;48.22;66588.06;5091618;28;20196;-56
2023/06/24 10:55:39;;;;;;;10.82;9.73;;;;;;;33.93;48.95;66614.69;5091432;28;20204;-56
2023/06/24 10:58:09;;;;;;;11.57;8.80;;;;;;;33.49;49.16;66566.63;5091232;28;20200;-60
2023/06/24 11:00:35;;;;;;;8.98;8.07;;;;;;;33.26;48.16;66538.28;5091468;28;20317;-56
2023/06/24 11:03:17;;;;;;;8.52;7.75;;;;;;;32.97;47.54;66509.06;5091525;28;20270;-56
2023/06/24 11:05:45;;;;;;;11.00;8.75;;;;;;;33.55;48.20;66575.94;5090071;28;20215;-58
2023/06/24 11:08:11;;;;;;;10.07;8.98;;;;;;;34.00;47.31;66622.53;5091207;28;20192;-55
2023/06/24 11:10:47;;;;;;;10.48;8.25;;;;;;;33.88;45.64;66610.22;5091279;28;20208;-60
2023/06/24 11:13:12;;;;;;;9.05;7.10;;;;;;;34.00;45.21;66625.69;5091322;28;20661;-59
2023/06/24 11:15:40;;;;;;;8.77;7.88;;;;;;;34.32;44.96;66660.94;5091088;28;20211;-59